createdAt,value
2018-12-09T00:00:54.764Z,10.88
2018-12-09T00:04:19.637Z,10.82
2018-12-09T00:07:44.384Z,11.03
2018-12-09T00:11:09.227Z,10.88
2018-12-09T00:14:33.988Z,11.01
2018-12-09T00:17:58.685Z,10.68
2018-12-09T00:21:23.412Z,10.76
2018-12-09T00:24:48.101Z,10.74
2018-12-09T00:28:12.765Z,11.10
2018-12-09T00:31:37.436Z,11.04
2018-12-09T00:35:02.115Z,10.60
2018-12-09T00:38:26.835Z,10.73
2018-12-09T00:41:51.484Z,10.43
2018-12-09T00:45:16.180Z,10.56
2018-12-09T00:48:40.810Z,10.52
2018-12-09T00:52:05.555Z,10.79
2018-12-09T00:55:30.535Z,9.00
2018-12-09T00:58:55.280Z,8.70
2018-12-09T01:02:19.966Z,7.83
2018-12-09T01:05:45.186Z,8.20
2018-12-09T01:09:10.042Z,8.65
2018-12-09T01:12:34.775Z,9.14
2018-12-09T01:15:59.589Z,9.26
2018-12-09T01:19:24.245Z,9.67
2018-12-09T01:22:48.942Z,9.69
2018-12-09T01:26:13.746Z,9.68
2018-12-09T01:29:38.889Z,9.65
2018-12-09T01:33:03.562Z,9.87
2018-12-09T01:36:28.260Z,9.94
2018-12-09T01:39:52.977Z,9.99
2018-12-09T01:43:17.655Z,9.97
2018-12-09T01:46:42.457Z,9.81
2018-12-09T01:50:07.482Z,10.02
2018-12-09T01:54:35.212Z,9.96
2018-12-09T01:57:59.911Z,10.18
2018-12-09T02:01:24.617Z,10.04
2018-12-09T02:04:49.337Z,10.07
2018-12-09T02:08:14.032Z,10.15
2018-12-09T02:11:38.781Z,10.15
2018-12-09T02:15:03.503Z,10.10
2018-12-09T02:18:28.184Z,10.11
2018-12-09T02:21:52.893Z,9.81
2018-12-09T02:25:17.828Z,9.96
2018-12-09T02:28:43.007Z,10.12
2018-12-09T02:32:07.724Z,10.23
2018-12-09T02:39:15.943Z,10.21
2018-12-09T02:42:41.553Z,10.26
2018-12-09T02:46:06.288Z,10.30
2018-12-09T02:49:31.002Z,10.62
2018-12-09T02:52:55.721Z,10.39
2018-12-09T02:56:20.430Z,10.47
2018-12-09T02:59:45.457Z,10.40
2018-12-09T03:03:10.361Z,10.19
2018-12-09T03:06:35.065Z,10.20
2018-12-09T03:09:59.791Z,10.14
2018-12-09T03:13:24.456Z,10.22
2018-12-09T03:16:49.295Z,10.37
2018-12-09T03:20:14.160Z,10.24
2018-12-09T03:23:38.828Z,10.42
2018-12-09T03:27:03.525Z,10.50
2018-12-09T03:30:28.199Z,10.34
2018-12-09T03:33:52.866Z,9.75
2018-12-09T03:37:17.558Z,9.78
2018-12-09T03:40:42.288Z,9.48
2018-12-09T03:44:07.007Z,9.69
2018-12-09T03:47:31.783Z,9.29
2018-12-09T03:50:56.522Z,9.36
2018-12-09T03:54:21.155Z,9.55
2018-12-09T03:57:45.832Z,9.52
2018-12-09T04:01:10.910Z,9.42
2018-12-09T04:04:35.878Z,9.57
2018-12-09T04:08:00.538Z,9.46
2018-12-09T04:11:25.192Z,9.28
2018-12-09T04:14:49.851Z,9.28
2018-12-09T04:18:14.544Z,9.36
2018-12-09T04:21:39.238Z,9.35
2018-12-09T04:25:04.124Z,9.14
2018-12-09T04:28:28.807Z,9.55
2018-12-09T04:31:53.487Z,9.36
2018-12-09T04:35:18.197Z,9.32
2018-12-09T04:38:42.893Z,9.61
2018-12-09T04:42:07.530Z,9.46
2018-12-09T04:45:32.253Z,9.38
2018-12-09T04:48:57.007Z,9.51
2018-12-09T04:52:21.751Z,9.30
2018-12-09T04:55:46.412Z,9.56
2018-12-09T04:59:18.530Z,9.79
2018-12-09T05:02:43.784Z,9.53
2018-12-09T05:06:08.437Z,9.55
2018-12-09T05:09:33.121Z,9.45
2018-12-09T05:12:57.891Z,9.51
2018-12-09T05:16:22.586Z,9.64
2018-12-09T05:19:47.291Z,9.42
2018-12-09T05:23:13.011Z,9.71
2018-12-09T05:26:37.714Z,9.40
2018-12-09T05:30:02.437Z,9.56
2018-12-09T05:33:27.122Z,9.45
2018-12-09T05:36:52.437Z,9.61
2018-12-09T05:40:17.228Z,9.70
2018-12-09T05:43:41.950Z,9.76
2018-12-09T05:47:06.860Z,9.55
2018-12-09T05:50:31.606Z,9.89
2018-12-09T05:53:56.353Z,9.88
2018-12-09T05:57:21.143Z,9.92
2018-12-09T06:00:45.813Z,10.11
2018-12-09T06:04:10.518Z,10.03
2018-12-09T06:07:35.223Z,10.27
2018-12-09T06:11:00.356Z,10.00
2018-12-09T06:14:25.462Z,9.80
2018-12-09T06:17:50.221Z,9.97
2018-12-09T06:21:14.925Z,10.02
2018-12-09T06:24:39.614Z,10.11
2018-12-09T06:28:04.311Z,9.77
2018-12-09T06:34:59.620Z,9.91
2018-12-09T06:38:24.312Z,9.98
2018-12-09T06:41:49.036Z,10.08
2018-12-09T06:45:13.770Z,10.19
2018-12-09T06:48:38.659Z,10.14
2018-12-09T06:52:03.424Z,10.08
2018-12-09T06:55:28.214Z,10.04
2018-12-09T06:58:52.919Z,10.14
2018-12-09T07:02:17.655Z,10.24
2018-12-09T07:05:42.365Z,10.46
2018-12-09T07:09:08.249Z,10.34
2018-12-09T07:12:34.160Z,10.16
2018-12-09T07:15:58.987Z,10.26
2018-12-09T07:19:23.801Z,9.95
2018-12-09T07:22:48.552Z,10.27
2018-12-09T07:26:13.419Z,10.22
2018-12-09T07:29:38.448Z,10.22
2018-12-09T07:33:03.678Z,10.58
2018-12-09T07:36:29.074Z,10.05
2018-12-09T07:39:53.774Z,10.28
2018-12-09T07:43:18.610Z,10.36
2018-12-09T07:46:43.432Z,10.05
2018-12-09T07:50:08.545Z,10.15
2018-12-09T07:53:33.344Z,10.22
2018-12-09T07:56:58.395Z,10.54
2018-12-09T08:00:23.506Z,10.21
2018-12-09T08:03:48.779Z,10.18
2018-12-09T08:07:14.471Z,9.70
2018-12-09T08:10:42.243Z,9.94
2018-12-09T08:14:09.442Z,9.85
2018-12-09T08:17:34.161Z,9.59
2018-12-09T08:20:58.914Z,9.59
2018-12-09T08:24:23.663Z,9.74
2018-12-09T08:27:48.363Z,9.43
2018-12-09T08:31:13.608Z,9.57
2018-12-09T08:34:39.139Z,9.74
2018-12-09T08:38:10.079Z,9.65
2018-12-09T08:41:35.657Z,9.68
2018-12-09T08:45:01.159Z,9.68
2018-12-09T08:48:26.378Z,9.75
2018-12-09T08:51:51.623Z,9.79
2018-12-09T08:55:16.326Z,10.05
2018-12-09T08:58:40.979Z,9.89
2018-12-09T09:02:05.851Z,9.92
2018-12-09T09:05:30.621Z,9.87
2018-12-09T09:08:55.327Z,9.99
2018-12-09T09:12:20.096Z,9.97
2018-12-09T09:15:44.931Z,9.89
2018-12-09T09:19:09.633Z,9.59
2018-12-09T09:22:36.349Z,9.88
2018-12-09T09:26:01.190Z,9.77
2018-12-09T09:29:25.853Z,9.85
2018-12-09T09:32:50.520Z,9.74
2018-12-09T09:36:15.217Z,9.69
2018-12-09T09:39:40.018Z,9.86
2018-12-09T09:43:04.764Z,10.07
2018-12-09T09:46:29.439Z,9.73
2018-12-09T09:49:54.174Z,9.75
2018-12-09T09:53:18.819Z,9.69
2018-12-09T09:56:43.682Z,9.65
2018-12-09T10:00:09.965Z,10.23
2018-12-09T10:03:34.738Z,10.08
2018-12-09T10:06:59.427Z,10.10
2018-12-09T10:10:24.287Z,9.74
2018-12-09T10:13:48.946Z,9.82
2018-12-09T10:17:13.754Z,9.96
2018-12-09T10:20:38.453Z,9.79
2018-12-09T10:24:03.147Z,9.56
2018-12-09T10:27:27.864Z,10.16
2018-12-09T10:30:52.578Z,9.92
2018-12-09T10:34:17.339Z,10.05
2018-12-09T10:37:41.996Z,10.19
2018-12-09T10:41:07.039Z,10.20
2018-12-09T10:44:31.742Z,10.40
2018-12-09T10:47:56.548Z,10.45
2018-12-09T10:51:21.233Z,10.90
2018-12-09T10:54:46.088Z,11.19
2018-12-09T10:58:10.909Z,10.61
2018-12-09T11:05:28.550Z,12.49
2018-12-09T11:08:53.378Z,12.29
2018-12-09T11:12:18.252Z,11.93
2018-12-09T11:15:43.106Z,11.57
2018-12-09T11:19:07.776Z,10.45
2018-12-09T11:22:32.489Z,8.93
2018-12-09T11:25:57.835Z,8.89
2018-12-09T11:29:22.544Z,9.17
2018-12-09T11:32:47.273Z,9.47
2018-12-09T11:36:12.067Z,9.27
2018-12-09T11:39:36.822Z,9.30
2018-12-09T11:43:01.619Z,9.19
2018-12-09T11:46:26.397Z,9.50
2018-12-09T11:49:51.130Z,9.77
2018-12-09T11:53:15.810Z,9.45
2018-12-09T11:56:40.561Z,9.56
2018-12-09T12:00:09.928Z,9.81
2018-12-09T12:03:34.719Z,9.47
2018-12-09T12:06:59.472Z,9.87
2018-12-09T12:10:24.127Z,9.74
2018-12-09T12:13:48.872Z,9.93
2018-12-09T12:17:14.018Z,9.98
2018-12-09T12:20:38.729Z,9.68
2018-12-09T12:24:03.438Z,9.58
2018-12-09T12:27:28.189Z,9.68
2018-12-09T12:30:52.877Z,9.61
2018-12-09T12:34:17.549Z,9.60
2018-12-09T12:37:42.518Z,9.74
2018-12-09T12:41:07.265Z,9.67
2018-12-09T12:44:31.953Z,9.50
2018-12-09T12:47:56.593Z,9.78
2018-12-09T12:51:21.357Z,9.87
2018-12-09T12:54:46.032Z,9.81
2018-12-09T12:58:10.784Z,10.16
2018-12-09T13:01:35.468Z,10.09
2018-12-09T13:05:00.176Z,10.19
2018-12-09T13:08:25.530Z,10.43
2018-12-09T13:11:50.245Z,10.69
2018-12-09T13:15:15.157Z,11.36
2018-12-09T13:18:39.860Z,11.61
2018-12-09T13:22:04.508Z,11.45
2018-12-09T13:25:29.282Z,11.63
2018-12-09T13:28:53.928Z,11.57
2018-12-09T13:32:18.652Z,11.40
2018-12-09T13:35:43.268Z,11.10
2018-12-09T13:39:08.563Z,11.78
2018-12-09T13:42:33.223Z,11.60
2018-12-09T13:45:57.982Z,11.99
2018-12-09T13:49:22.911Z,11.81
2018-12-09T13:52:47.528Z,12.69
2018-12-09T13:56:12.398Z,11.60
2018-12-09T13:59:37.107Z,11.76
2018-12-09T14:03:01.800Z,12.43
2018-12-09T14:06:26.487Z,12.03
2018-12-09T14:09:51.245Z,12.73
2018-12-09T14:13:16.013Z,11.78
2018-12-09T14:16:40.757Z,12.32
2018-12-09T14:20:07.616Z,12.05
2018-12-09T14:23:33.221Z,12.10
2018-12-09T14:26:58.056Z,12.06
2018-12-09T14:30:22.919Z,11.83
2018-12-09T14:33:47.624Z,12.03
2018-12-09T14:37:12.330Z,11.43
2018-12-09T14:40:37.176Z,11.11
2018-12-09T14:44:01.895Z,11.00
2018-12-09T14:47:26.600Z,10.87
2018-12-09T14:50:51.315Z,10.74
2018-12-09T14:54:16.052Z,10.90
2018-12-09T14:57:40.741Z,10.47
2018-12-09T15:01:05.440Z,10.51
2018-12-09T15:04:30.106Z,10.30
2018-12-09T15:07:54.837Z,10.13
2018-12-09T15:11:19.532Z,10.32
2018-12-09T15:14:44.186Z,10.23
2018-12-09T15:18:08.929Z,10.23
2018-12-09T15:21:33.611Z,10.31
2018-12-09T15:24:58.336Z,10.11
2018-12-09T15:28:23.019Z,10.18
2018-12-09T15:31:47.741Z,10.32
2018-12-09T15:35:12.428Z,10.48
2018-12-09T15:38:37.130Z,10.36
2018-12-09T15:42:01.940Z,10.05
2018-12-09T15:45:26.661Z,10.26
2018-12-09T15:48:51.382Z,10.34
2018-12-09T15:52:16.124Z,10.49
2018-12-09T15:55:40.859Z,10.05
2018-12-09T15:59:05.589Z,10.10
2018-12-09T16:02:30.294Z,10.10
2018-12-09T16:05:55.011Z,10.02
2018-12-09T16:09:19.709Z,10.06
2018-12-09T16:12:45.061Z,9.99
2018-12-09T16:16:09.788Z,9.73
2018-12-09T16:19:34.529Z,9.62
2018-12-09T16:22:59.207Z,9.86
2018-12-09T16:26:23.970Z,9.80
2018-12-09T16:29:48.675Z,9.88
2018-12-09T16:33:13.365Z,9.75
2018-12-09T16:36:38.128Z,9.32
2018-12-09T16:40:02.840Z,9.47
2018-12-09T16:43:27.572Z,9.45
2018-12-09T16:46:52.267Z,9.26
2018-12-09T16:50:16.998Z,9.50
2018-12-09T16:53:41.651Z,9.30
2018-12-09T16:57:07.290Z,9.17
2018-12-09T17:00:31.989Z,9.39
2018-12-09T17:03:57.060Z,9.10
2018-12-09T17:07:21.863Z,9.35
2018-12-09T17:10:46.806Z,9.25
2018-12-09T17:14:11.531Z,9.37
2018-12-09T17:17:36.283Z,9.50
2018-12-09T17:21:00.984Z,9.50
2018-12-09T17:24:25.783Z,9.16
2018-12-09T17:27:50.483Z,9.61
2018-12-09T17:31:15.242Z,9.69
2018-12-09T17:34:39.971Z,9.46
2018-12-09T17:38:04.663Z,9.41
2018-12-09T17:41:29.321Z,9.61
2018-12-09T17:44:53.975Z,9.51
2018-12-09T17:48:18.767Z,9.66
2018-12-09T17:51:43.462Z,9.54
2018-12-09T17:55:08.213Z,9.42
2018-12-09T17:58:32.886Z,9.59
2018-12-09T18:01:57.559Z,9.71
2018-12-09T18:05:22.381Z,9.83
2018-12-09T18:08:47.104Z,9.66
2018-12-09T18:12:11.828Z,9.77
2018-12-09T18:15:36.630Z,9.63
2018-12-09T18:19:01.399Z,9.48
2018-12-09T18:22:26.110Z,9.67
2018-12-09T18:25:50.926Z,9.55
2018-12-09T18:29:15.714Z,9.71
2018-12-09T18:32:40.539Z,9.40
2018-12-09T18:36:05.574Z,9.51
2018-12-09T18:39:30.284Z,9.45
2018-12-09T18:42:55.189Z,9.33
2018-12-09T18:46:19.930Z,9.48
2018-12-09T18:49:44.885Z,9.33
2018-12-09T18:53:09.745Z,9.30
2018-12-09T18:56:34.554Z,9.39
2018-12-09T18:59:59.248Z,9.24
2018-12-09T19:03:24.137Z,9.23
2018-12-09T19:06:48.827Z,9.32
2018-12-09T19:10:13.475Z,8.76
2018-12-09T19:13:45.534Z,8.89
2018-12-09T19:17:16.850Z,9.28
2018-12-09T19:20:42.192Z,9.12
2018-12-09T19:24:07.002Z,8.66
2018-12-09T19:27:31.859Z,8.79
2018-12-09T19:30:56.637Z,8.85
2018-12-09T19:34:24.178Z,8.93
2018-12-09T19:37:48.884Z,8.77
2018-12-09T19:41:19.581Z,8.72
2018-12-09T19:44:44.437Z,8.62
2018-12-09T19:48:09.215Z,8.66
2018-12-09T19:51:35.681Z,8.78
2018-12-09T19:55:12.177Z,8.78
2018-12-09T19:58:39.735Z,8.57
2018-12-09T20:02:04.600Z,8.75
2018-12-09T20:05:29.277Z,8.73
2018-12-09T20:08:56.946Z,8.69
2018-12-09T20:12:27.158Z,8.83
2018-12-09T20:15:51.963Z,8.90
2018-12-09T20:19:16.758Z,8.52
2018-12-09T20:22:43.532Z,8.96
2018-12-09T20:26:08.288Z,8.82
2018-12-09T20:29:35.179Z,9.01
2018-12-09T20:32:59.914Z,8.94
2018-12-09T20:36:25.382Z,8.99
2018-12-09T20:39:50.137Z,9.11
2018-12-09T20:43:14.926Z,9.03
2018-12-09T20:46:40.565Z,8.84
2018-12-09T20:50:07.309Z,9.27
2018-12-09T20:53:32.034Z,9.10
2018-12-09T20:56:56.750Z,8.98
2018-12-09T21:00:21.744Z,8.70
2018-12-09T21:03:46.499Z,8.88
2018-12-09T21:07:11.206Z,8.93
2018-12-09T21:10:35.928Z,9.11
2018-12-09T21:14:00.679Z,8.83
2018-12-09T21:17:25.448Z,8.85
2018-12-09T21:20:50.270Z,8.81
2018-12-09T21:24:14.987Z,8.63
2018-12-09T21:27:39.729Z,8.80
2018-12-09T21:31:04.435Z,8.45
2018-12-09T21:34:29.525Z,8.45
2018-12-09T21:37:54.282Z,8.51
2018-12-09T21:41:19.264Z,8.29
2018-12-09T21:44:44.129Z,8.23
2018-12-09T21:48:09.049Z,8.22
2018-12-09T21:51:33.809Z,8.29
2018-12-09T21:54:58.495Z,8.12
2018-12-09T21:58:23.162Z,8.15
2018-12-09T22:01:47.905Z,8.34
2018-12-09T22:05:12.825Z,8.17
2018-12-09T22:08:37.557Z,8.68
2018-12-09T22:12:02.345Z,8.25
2018-12-09T22:15:27.042Z,8.73
2018-12-09T22:18:57.215Z,8.52
2018-12-09T22:22:21.992Z,8.37
2018-12-09T22:25:46.743Z,8.70
2018-12-09T22:29:11.605Z,8.56
2018-12-09T22:32:36.358Z,8.72
2018-12-09T22:36:01.066Z,8.85
2018-12-09T22:39:25.842Z,8.61
2018-12-09T22:42:50.551Z,8.63
2018-12-09T22:46:15.241Z,8.40
2018-12-09T22:49:39.993Z,8.34
2018-12-09T22:53:04.818Z,8.28
2018-12-09T22:56:29.531Z,8.38
2018-12-09T22:59:54.351Z,8.12
2018-12-09T23:03:19.066Z,8.12
2018-12-09T23:06:43.789Z,8.15
2018-12-09T23:10:08.654Z,8.36
2018-12-09T23:13:33.373Z,8.43
2018-12-09T23:16:58.109Z,8.62
2018-12-09T23:20:22.875Z,8.37
2018-12-09T23:23:47.598Z,8.17
2018-12-09T23:27:12.501Z,8.09
2018-12-09T23:30:37.262Z,7.96
2018-12-09T23:34:01.958Z,8.12
2018-12-09T23:37:26.852Z,7.80
2018-12-09T23:40:51.606Z,7.91
2018-12-09T23:44:16.420Z,7.94
2018-12-09T23:47:41.157Z,7.87
2018-12-09T23:51:05.885Z,7.64
2018-12-09T23:54:30.654Z,7.85
2018-12-09T23:57:55.458Z,8.02
